Time;durP1;ratioP1;P1;durP2;ratioP2;P2;SDS_P1;SDS_P2;PMS_P1;PMS_P2;Temp;Humidity;BMP_temperature;BMP_pressure;BME280_temperature;BME280_humidity;BME280_pressure;Samples;Min_cycle;Max_cycle;Signal;HPM_P1;HPM_P2
2021/01/14 00:03:20;;;;;;;4.50;1.50;;;;;;;2.92;72.77;100252.00;8581733;33;20398;-72
2021/01/14 00:08:41;;;;;;;8.40;1.97;;;;;;;2.93;72.43;100251.91;8575007;33;20493;-72
2021/01/14 00:13:43;;;;;;;5.23;1.73;;;;;;;2.77;73.17;100256.94;8573081;33;20917;-72
2021/01/14 00:18:46;;;;;;;2.90;2.07;;;;;;;2.69;73.83;100272.19;8578103;33;20465;-72
2021/01/14 00:23:49;;;;;;;3.27;1.33;;;;;;;2.33;73.59;100271.69;8587100;33;20590;-71
2021/01/14 00:28:51;;;;;;;6.47;1.73;;;;;;;2.35;74.50;100273.34;8589162;33;20717;-71
2021/01/14 00:33:54;;;;;;;1.80;1.50;;;;;;;2.40;74.70;100281.13;8590587;33;20274;-71
2021/01/14 00:38:59;;;;;;;4.53;2.03;;;;;;;2.26;75.13;100278.97;8594396;33;21153;-71
2021/01/14 00:44:01;;;;;;;2.00;1.43;;;;;;;2.32;75.38;100304.25;8597442;33;20187;-71
2021/01/14 00:49:05;;;;;;;2.67;1.53;;;;;;;2.12;75.76;100310.19;8604509;33;20543;-71
2021/01/14 00:54:08;;;;;;;4.10;1.30;;;;;;;2.16;75.99;100309.16;8598328;33;20183;-71
2021/01/14 00:59:10;;;;;;;5.23;1.70;;;;;;;2.23;76.18;100318.59;8608012;33;20414;-71
2021/01/14 01:04:13;;;;;;;3.40;2.00;;;;;;;2.25;76.54;100322.06;8598818;33;21880;-71
2021/01/14 01:09:16;;;;;;;3.57;1.70;;;;;;;1.86;77.07;100337.38;8597351;33;20414;-73
2021/01/14 01:14:18;;;;;;;3.57;1.50;;;;;;;2.11;76.28;100335.69;8591277;33;20347;-71
2021/01/14 01:19:22;;;;;;;5.53;1.60;;;;;;;2.48;76.29;100345.00;8606251;33;20420;-71
2021/01/14 01:24:24;;;;;;;1.43;1.23;;;;;;;2.57;76.27;100363.13;8635901;33;20191;-71
2021/01/14 01:29:27;;;;;;;4.87;1.40;;;;;;;2.66;76.17;100370.75;8600799;33;20499;-71
2021/01/14 01:34:30;;;;;;;3.40;1.70;;;;;;;2.71;75.75;100369.72;8600329;33;20903;-71
2021/01/14 01:39:32;;;;;;;6.67;1.93;;;;;;;2.84;75.00;100387.72;8604119;33;20151;-71
2021/01/14 01:44:35;;;;;;;4.43;1.60;;;;;;;2.76;74.26;100395.03;8600415;33;20452;-71
2021/01/14 01:49:39;;;;;;;6.50;2.00;;;;;;;2.68;74.53;100400.56;8598551;33;20426;-71
2021/01/14 01:54:42;;;;;;;2.90;2.17;;;;;;;2.52;74.42;100393.22;8598369;33;20689;-71
2021/01/14 01:59:44;;;;;;;3.47;2.00;;;;;;;2.72;74.50;100411.03;8597108;33;20449;-71
2021/01/14 02:04:48;;;;;;;6.97;2.27;;;;;;;2.81;73.60;100413.34;8596616;33;21012;-71
2021/01/14 02:09:55;;;;;;;5.17;2.33;;;;;;;2.96;73.62;100431.28;8597103;33;20150;-70
2021/01/14 02:15:00;;;;;;;5.57;2.13;;;;;;;2.95;73.46;100433.97;8596287;33;20416;-71
2021/01/14 02:20:04;;;;;;;5.57;2.33;;;;;;;2.94;73.05;100441.03;8596186;33;20909;-71
2021/01/14 02:25:13;;;;;;;6.27;2.23;;;;;;;2.88;71.21;100428.06;8596151;33;21070;-71
2021/01/14 02:30:18;;;;;;;7.53;2.33;;;;;;;2.86;70.08;100446.56;8597058;33;20908;-71
2021/01/14 02:35:20;;;;;;;5.57;1.93;;;;;;;3.06;70.27;100434.47;8602636;33;20135;-72
2021/01/14 02:40:23;;;;;;;6.60;2.20;;;;;;;3.01;70.31;100445.19;8600306;33;20899;-72
2021/01/14 02:45:26;;;;;;;7.37;2.37;;;;;;;3.15;71.22;100462.31;8593367;33;20457;-71
2021/01/14 02:50:31;;;;;;;7.43;2.23;;;;;;;3.08;70.25;100467.81;8590629;33;20430;-71
2021/01/14 02:55:34;;;;;;;8.50;2.57;;;;;;;2.99;69.56;100467.25;8595796;33;20985;-70
2021/01/14 03:00:37;;;;;;;5.60;2.23;;;;;;;2.84;69.35;100466.88;8593744;33;20411;-71
2021/01/14 03:05:39;;;;;;;5.03;2.73;;;;;;;2.78;69.86;100482.06;8595483;33;20169;-71
2021/01/14 03:10:43;;;;;;;4.30;2.17;;;;;;;2.61;69.62;100474.69;8593761;33;20468;-71
2021/01/14 03:15:46;;;;;;;2.97;2.27;;;;;;;2.54;69.22;100484.56;8598641;33;20669;-71
2021/01/14 03:20:49;;;;;;;6.73;2.33;;;;;;;2.39;70.12;100474.53;8596793;33;20438;-71
2021/01/14 03:25:52;;;;;;;5.20;2.00;;;;;;;2.39;70.43;100483.31;8593182;33;20174;-72
2021/01/14 03:30:55;;;;;;;5.53;2.00;;;;;;;2.37;70.48;100498.28;8592284;33;20408;-71
2021/01/14 03:35:58;;;;;;;4.93;2.10;;;;;;;2.30;70.83;100496.75;8593425;33;20218;-72
2021/01/14 03:41:01;;;;;;;2.57;1.87;;;;;;;2.35;71.06;100499.25;8594269;33;20412;-71
2021/01/14 03:46:09;;;;;;;2.23;2.03;;;;;;;2.43;70.65;100507.78;8587235;33;20546;-71
2021/01/14 03:51:20;;;;;;;2.07;1.70;;;;;;;2.49;70.54;100507.59;8590978;33;20471;-71
2021/01/14 03:56:22;;;;;;;7.90;2.10;;;;;;;2.55;70.14;100514.44;8593330;33;20134;-72
2021/01/14 04:01:25;;;;;;;1.97;1.47;;;;;;;2.59;69.99;100522.22;8594503;33;20187;-72
2021/01/14 04:06:33;;;;;;;3.20;2.10;;;;;;;2.54;69.99;100513.59;8597624;33;20517;-71
2021/01/14 04:11:36;;;;;;;2.00;1.80;;;;;;;2.30;70.03;100522.25;8598211;33;20724;-72
2021/01/14 04:16:40;;;;;;;5.83;1.83;;;;;;;2.25;70.51;100521.53;8598797;33;20440;-72
2021/01/14 04:21:42;;;;;;;3.60;1.90;;;;;;;2.09;70.99;100524.66;8599510;33;20328;-72
2021/01/14 04:26:47;;;;;;;5.23;2.90;;;;;;;2.04;71.40;100533.59;8600572;33;20837;-70
2021/01/14 04:31:50;;;;;;;4.07;2.40;;;;;;;2.18;71.33;100540.19;8604893;33;20231;-70
2021/01/14 04:36:57;;;;;;;4.93;2.30;;;;;;;2.23;70.59;100540.91;8600959;33;20956;-71
2021/01/14 04:42:01;;;;;;;2.13;1.70;;;;;;;2.30;70.51;100556.53;8600421;33;20965;-71
2021/01/14 04:47:13;;;;;;;4.07;2.13;;;;;;;2.34;70.25;100553.78;8599925;33;20409;-71
2021/01/14 04:52:17;;;;;;;5.57;2.33;;;;;;;2.41;70.60;100570.25;8599837;33;20458;-72
2021/01/14 04:57:23;;;;;;;6.87;2.30;;;;;;;2.39;70.46;100569.47;8599348;33;20182;-72
2021/01/14 05:02:27;;;;;;;6.17;2.33;;;;;;;2.41;70.13;100563.22;8601085;33;20408;-71
2021/01/14 05:07:31;;;;;;;4.37;2.87;;;;;;;2.50;70.30;100567.34;8610245;33;20139;-72
2021/01/14 05:12:35;;;;;;;3.90;2.40;;;;;;;2.58;70.29;100570.63;8602348;33;20909;-71
2021/01/14 05:17:38;;;;;;;4.83;2.37;;;;;;;2.63;70.02;100579.25;8599480;33;20505;-72
2021/01/14 05:22:42;;;;;;;5.60;2.35;;;;;;;2.74;70.19;100585.97;8600517;33;20513;-72
2021/01/14 05:27:45;;;;;;;3.10;2.00;;;;;;;2.82;70.12;100582.16;8600894;33;20210;-72
2021/01/14 05:32:49;;;;;;;6.70;2.57;;;;;;;2.79;69.97;100589.31;8604474;33;20865;-72
2021/01/14 05:37:51;;;;;;;6.33;2.53;;;;;;;2.94;69.59;100598.53;8605406;33;20158;-72
2021/01/14 05:43:01;;;;;;;4.93;1.80;;;;;;;2.92;69.75;100600.34;8611380;33;20463;-72
2021/01/14 05:48:12;;;;;;;6.10;2.80;;;;;;;2.75;69.76;100599.13;8599462;33;20436;-72
2021/01/14 05:53:17;;;;;;;4.63;2.80;;;;;;;2.96;69.48;100609.88;8596210;33;20142;-71
2021/01/14 05:58:20;;;;;;;4.37;2.67;;;;;;;3.01;69.24;100615.91;8596620;33;20187;-72
2021/01/14 06:03:28;;;;;;;8.03;3.33;;;;;;;3.07;69.20;100615.69;8614680;33;20556;-72
2021/01/14 06:08:31;;;;;;;4.00;2.37;;;;;;;3.12;69.54;100630.47;8622584;33;20262;-71
2021/01/14 06:13:39;;;;;;;5.93;3.20;;;;;;;3.07;69.64;100629.78;8606487;33;20490;-71
2021/01/14 06:19:09;;;;;;;4.83;2.60;;;;;;;3.15;69.18;100626.88;8601754;33;20802;-72
2021/01/14 06:24:25;;;;;;;5.93;3.17;;;;;;;3.16;69.51;100638.31;8614839;33;20724;-70
2021/01/14 06:29:29;;;;;;;5.20;2.73;;;;;;;3.13;69.62;100641.91;8604857;33;20432;-69
2021/01/14 06:34:34;;;;;;;6.67;3.17;;;;;;;3.16;69.69;100647.09;8603507;33;20486;-70
2021/01/14 06:39:45;;;;;;;6.90;3.57;;;;;;;3.07;69.86;100648.25;8614205;33;21906;-70
2021/01/14 06:44:53;;;;;;;18.30;4.93;;;;;;;3.18;69.96;100666.41;8617353;33;20396;-70
2021/01/14 06:50:20;;;;;;;7.20;3.40;;;;;;;3.24;69.96;100689.97;8614028;33;21074;-70
2021/01/14 06:55:25;;;;;;;11.13;5.03;;;;;;;3.25;70.13;100683.75;8606920;33;20584;-70
2021/01/14 07:00:29;;;;;;;30.97;15.27;;;;;;;3.22;69.99;100698.84;8564466;33;21006;-70
2021/01/14 07:05:38;;;;;;;27.47;12.90;;;;;;;3.26;69.89;100705.75;8543363;33;20244;-71
2021/01/14 07:11:00;;;;;;;11.80;6.13;;;;;;;3.23;70.37;100709.34;8546557;33;20450;-72
2021/01/14 07:16:04;;;;;;;11.53;5.33;;;;;;;3.24;70.43;100726.94;8556323;33;20829;-72
2021/01/14 07:21:27;;;;;;;7.90;4.53;;;;;;;3.26;70.32;100734.78;8561407;33;20405;-72
2021/01/14 07:26:30;;;;;;;9.13;3.93;;;;;;;3.33;70.18;100744.25;8525849;33;20437;-71
2021/01/14 07:31:33;;;;;;;11.80;3.73;;;;;;;3.39;70.39;100756.41;8506073;33;20184;-72
2021/01/14 07:36:42;;;;;;;12.20;5.53;;;;;;;3.39;70.28;100762.56;8514366;33;21214;-71
2021/01/14 07:41:58;;;;;;;16.17;7.17;;;;;;;3.33;70.83;100774.16;8505535;33;20557;-70
2021/01/14 07:47:01;;;;;;;10.17;4.60;;;;;;;3.38;70.88;100781.09;8503496;33;20616;-71
2021/01/14 07:52:08;;;;;;;7.53;4.20;;;;;;;3.40;70.75;100790.72;8504189;33;20576;-70
2021/01/14 07:57:12;;;;;;;8.73;5.00;;;;;;;3.42;71.04;100790.66;8505048;33;20607;-71
2021/01/14 08:02:15;;;;;;;14.00;5.33;;;;;;;3.38;70.92;100797.81;8506419;33;20408;-71
2021/01/14 08:07:23;;;;;;;10.98;7.30;;;;;;;3.47;70.98;100796.66;8510666;33;20433;-70
2021/01/14 08:12:28;;;;;;;7.73;4.97;;;;;;;3.45;71.00;100809.91;8510965;33;20730;-70
2021/01/14 08:17:31;;;;;;;11.33;5.63;;;;;;;3.46;70.87;100814.28;8505667;33;21129;-70
2021/01/14 08:22:43;;;;;;;12.43;5.40;;;;;;;3.47;71.16;100817.78;8503879;33;21042;-71
2021/01/14 08:27:45;;;;;;;5.03;2.63;;;;;;;3.55;71.16;100831.63;8504208;33;20785;-71
2021/01/14 08:32:49;;;;;;;16.50;5.87;;;;;;;3.92;71.00;100827.81;8540568;33;20466;-70
2021/01/14 08:38:02;;;;;;;16.40;6.37;;;;;;;4.13;70.61;100834.19;8509266;33;20426;-71
2021/01/14 08:43:08;;;;;;;13.50;6.20;;;;;;;4.14;69.88;100850.03;8511185;33;21199;-71
2021/01/14 08:48:12;;;;;;;12.27;5.63;;;;;;;4.24;68.97;100853.22;8510016;33;20246;-69
2021/01/14 08:53:27;;;;;;;7.80;5.00;;;;;;;4.10;69.50;100858.97;8506787;33;20978;-70
2021/01/14 08:58:39;;;;;;;10.53;5.83;;;;;;;4.12;69.67;100861.56;8506613;33;20723;-70
2021/01/14 09:03:41;;;;;;;11.38;5.72;;;;;;;4.10;69.91;100868.69;8508375;33;20947;-70
2021/01/14 09:08:53;;;;;;;15.43;6.77;;;;;;;4.10;70.03;100869.53;8507267;33;20412;-70
2021/01/14 09:14:05;;;;;;;16.23;6.35;;;;;;;4.18;69.81;100877.22;8510437;33;20436;-70
2021/01/14 09:19:14;;;;;;;19.43;9.80;;;;;;;4.09;69.82;100875.75;8498898;33;20192;-71
2021/01/14 09:24:18;;;;;;;15.10;7.37;;;;;;;4.24;70.07;100883.16;8497501;33;21013;-71
2021/01/14 09:29:30;;;;;;;13.25;8.30;;;;;;;4.37;70.23;100886.28;8506147;33;20144;-71
2021/01/14 09:34:32;;;;;;;18.13;8.90;;;;;;;4.42;69.81;100892.31;8507584;33;21981;-71
2021/01/14 09:39:37;;;;;;;20.80;9.70;;;;;;;4.49;70.17;100902.66;8507879;33;20198;-69
2021/01/14 09:44:40;;;;;;;13.83;6.73;;;;;;;4.58;70.34;100902.34;8505906;33;20190;-69
2021/01/14 09:49:42;;;;;;;14.20;7.00;;;;;;;4.75;69.86;100907.09;8491448;33;20209;-69
2021/01/14 09:54:47;;;;;;;15.10;9.17;;;;;;;4.80;69.54;100895.44;8491278;33;20583;-70
2021/01/14 09:59:51;;;;;;;14.75;7.78;;;;;;;5.03;69.77;100905.19;8493523;33;20423;-70
2021/01/14 10:04:57;;;;;;;12.98;7.40;;;;;;;5.20;68.41;100906.38;8520773;33;20287;-70
2021/01/14 10:10:01;;;;;;;13.70;7.07;;;;;;;5.17;67.94;100912.66;8489856;33;20418;-70
2021/01/14 10:15:11;;;;;;;17.08;6.47;;;;;;;5.01;68.23;100916.75;8487206;33;20216;-70
2021/01/14 10:20:14;;;;;;;15.32;8.20;;;;;;;4.85;68.83;100930.56;8536153;33;20613;-70
2021/01/14 10:25:19;;;;;;;14.43;7.18;;;;;;;4.75;68.89;100929.13;8558700;33;20188;-71
2021/01/14 10:30:23;;;;;;;17.15;8.73;;;;;;;4.68;69.31;100930.25;8554449;33;20160;-71
2021/01/14 10:35:29;;;;;;;21.65;9.75;;;;;;;4.60;70.44;100927.84;8511533;33;21754;-71
2021/01/14 10:40:43;;;;;;;23.05;10.82;;;;;;;4.73;70.50;100927.44;8503733;33;20426;-71
2021/01/14 10:46:04;;;;;;;18.42;9.00;;;;;;;4.72;70.14;100933.63;8519794;33;20185;-71
2021/01/14 10:51:07;;;;;;;21.00;10.03;;;;;;;4.79;70.78;100925.44;8533850;33;20453;-71
2021/01/14 10:56:12;;;;;;;22.48;9.98;;;;;;;4.95;70.79;100930.22;8500858;33;20199;-71
2021/01/14 11:01:16;;;;;;;19.48;8.90;;;;;;;4.99;70.40;100924.78;8485352;33;20180;-70
2021/01/14 11:06:29;;;;;;;24.75;8.77;;;;;;;5.07;70.16;100917.44;8511238;33;21298;-70
2021/01/14 11:11:33;;;;;;;17.42;9.70;;;;;;;5.20;69.59;100919.63;8510816;33;20152;-70
2021/01/14 11:16:36;;;;;;;18.00;9.10;;;;;;;5.32;69.34;100929.75;8505435;33;20176;-71
2021/01/14 11:21:38;;;;;;;16.63;9.03;;;;;;;5.27;69.53;100921.16;8491589;33;20506;-71
2021/01/14 11:26:41;;;;;;;29.38;13.55;;;;;;;5.31;69.29;100925.41;8499716;33;20192;-71
2021/01/14 11:31:44;;;;;;;20.90;9.05;;;;;;;5.20;69.28;100917.84;8489271;33;20458;-70
2021/01/14 11:36:46;;;;;;;18.52;8.85;;;;;;;5.17;69.47;100925.03;8480452;33;20548;-70
2021/01/14 11:41:53;;;;;;;23.60;9.73;;;;;;;5.25;69.20;100930.94;8479359;33;20703;-71
2021/01/14 11:46:55;;;;;;;19.23;10.30;;;;;;;5.28;69.54;100931.66;8454881;33;20468;-71
2021/01/14 11:51:57;;;;;;;27.00;12.15;;;;;;;5.35;69.36;100924.38;8478865;33;20355;-70
2021/01/14 11:57:01;;;;;;;21.48;11.95;;;;;;;5.48;69.08;100917.69;8477443;33;20241;-70
2021/01/14 12:02:03;;;;;;;22.60;10.50;;;;;;;5.66;68.59;100918.78;8479686;33;20439;-71
2021/01/14 12:07:06;;;;;;;25.15;10.60;;;;;;;5.82;68.30;100919.06;8481391;33;20279;-70
2021/01/14 12:12:09;;;;;;;21.50;10.30;;;;;;;5.87;67.70;100914.47;8477779;33;20903;-71
2021/01/14 12:17:12;;;;;;;26.15;11.93;;;;;;;5.85;68.03;100916.28;8474135;33;20503;-71
2021/01/14 12:22:14;;;;;;;32.67;11.30;;;;;;;5.93;67.40;100922.19;8480826;33;20383;-71
2021/01/14 12:27:18;;;;;;;25.75;10.70;;;;;;;5.90;67.32;100924.94;8482044;33;20413;-71
2021/01/14 12:32:21;;;;;;;35.53;13.48;;;;;;;5.90;67.36;100929.38;8482294;33;20228;-71
2021/01/14 12:37:23;;;;;;;30.70;15.57;;;;;;;6.03;67.04;100922.69;8477884;33;20473;-70
2021/01/14 12:42:28;;;;;;;20.30;11.15;;;;;;;6.21;66.04;100919.31;8477153;33;20463;-70
2021/01/14 12:47:30;;;;;;;17.25;9.23;;;;;;;6.13;66.12;100925.84;8475137;33;20562;-70
2021/01/14 12:52:34;;;;;;;18.92;10.10;;;;;;;5.99;66.26;100915.78;8475133;33;20876;-71
2021/01/14 12:57:37;;;;;;;15.40;8.05;;;;;;;5.99;65.95;100927.25;8477762;33;20153;-71
2021/01/14 13:02:42;;;;;;;18.20;8.30;;;;;;;5.80;66.15;100924.41;8481120;33;20181;-71
2021/01/14 13:07:44;;;;;;;20.90;9.45;;;;;;;5.79;65.92;100927.16;8471343;33;20445;-69
2021/01/14 13:12:48;;;;;;;14.82;9.18;;;;;;;5.90;66.22;100921.44;8475263;33;20832;-71
2021/01/14 13:17:51;;;;;;;16.30;10.10;;;;;;;5.98;66.19;100916.72;8476843;33;20809;-70
2021/01/14 13:22:53;;;;;;;17.23;8.68;;;;;;;6.01;66.03;100922.75;8479379;33;20462;-70
2021/01/14 13:27:56;;;;;;;16.65;9.32;;;;;;;6.04;66.43;100923.56;8492326;33;20698;-70
2021/01/14 13:32:59;;;;;;;21.35;11.77;;;;;;;6.07;66.11;100916.34;8470401;33;20299;-70
2021/01/14 13:38:01;;;;;;;17.88;10.20;;;;;;;6.04;65.76;100919.13;8490893;33;20484;-70
2021/01/14 13:43:04;;;;;;;24.85;12.38;;;;;;;6.05;65.50;100923.50;8484169;33;20161;-70
2021/01/14 13:48:07;;;;;;;21.70;11.07;;;;;;;6.15;66.32;100924.88;8486023;33;20160;-71
2021/01/14 13:53:13;;;;;;;23.02;11.10;;;;;;;6.10;65.57;100924.19;8488077;33;20517;-70
2021/01/14 13:58:16;;;;;;;17.50;9.25;;;;;;;5.99;66.46;100916.66;8486732;33;20531;-70
2021/01/14 14:03:18;;;;;;;26.67;12.75;;;;;;;5.79;66.27;100917.41;8470612;33;20631;-71
2021/01/14 14:08:21;;;;;;;18.40;9.82;;;;;;;5.61;66.67;100911.94;8474715;33;21735;-70
2021/01/14 14:13:24;;;;;;;17.83;9.38;;;;;;;5.55;67.61;100916.53;8469583;33;20429;-70
2021/01/14 14:18:28;;;;;;;17.63;9.20;;;;;;;5.53;67.76;100909.56;8469257;33;20693;-70
2021/01/14 14:23:32;;;;;;;15.77;9.32;;;;;;;5.55;67.93;100911.25;8472251;33;20204;-70
2021/01/14 14:28:36;;;;;;;22.38;9.38;;;;;;;5.59;67.59;100917.28;8472527;33;20434;-70
2021/01/14 14:33:39;;;;;;;20.08;9.30;;;;;;;5.60;68.03;100911.06;8478847;33;20433;-72
2021/01/14 14:38:42;;;;;;;15.50;9.00;;;;;;;5.64;67.83;100909.16;8475668;33;21592;-70
2021/01/14 14:43:45;;;;;;;17.42;9.48;;;;;;;5.57;67.92;100920.00;8490528;33;20546;-70
2021/01/14 14:48:49;;;;;;;34.50;13.25;;;;;;;5.49;68.07;100918.56;8485265;33;21908;-70
2021/01/14 14:53:52;;;;;;;27.88;12.15;;;;;;;5.43;68.32;100926.72;8474272;33;21489;-71
2021/01/14 14:58:55;;;;;;;18.95;9.32;;;;;;;5.34;68.11;100926.13;8482549;33;20512;-70
2021/01/14 15:03:57;;;;;;;19.17;9.95;;;;;;;5.23;68.75;100932.75;8483747;33;20248;-71
2021/01/14 15:09:00;;;;;;;17.45;10.10;;;;;;;5.09;68.62;100936.75;8493362;33;20745;-71
2021/01/14 15:14:03;;;;;;;21.48;9.77;;;;;;;5.09;69.07;100946.50;8501619;33;21095;-71
2021/01/14 15:19:05;;;;;;;21.27;9.55;;;;;;;5.02;68.98;100951.16;8502822;33;21614;-71
2021/01/14 15:24:08;;;;;;;15.90;9.20;;;;;;;4.94;68.96;100953.19;8500147;33;20473;-71
2021/01/14 15:29:11;;;;;;;20.35;8.45;;;;;;;4.88;69.30;100967.53;8500601;33;20773;-71
2021/01/14 15:34:14;;;;;;;16.13;8.02;;;;;;;4.87;69.25;100972.84;8528122;33;21264;-70
2021/01/14 15:39:16;;;;;;;16.42;9.25;;;;;;;4.80;69.41;100964.25;8517191;33;20523;-71
2021/01/14 15:44:19;;;;;;;17.23;9.10;;;;;;;4.74;70.01;100972.38;8492115;33;20156;-70
2021/01/14 15:49:22;;;;;;;18.07;8.33;;;;;;;4.68;70.05;100972.59;8505276;33;21065;-71
2021/01/14 15:54:24;;;;;;;17.40;9.00;;;;;;;4.61;70.38;100984.31;8502921;33;20428;-71
2021/01/14 15:59:33;;;;;;;17.10;8.77;;;;;;;4.63;69.71;100988.63;8490898;33;20705;-71
2021/01/14 16:04:37;;;;;;;19.70;10.20;;;;;;;4.59;69.74;100994.09;8492966;33;20795;-70
2021/01/14 16:09:41;;;;;;;21.60;10.77;;;;;;;4.44;70.37;100998.97;8494054;33;20970;-71
2021/01/14 16:14:45;;;;;;;16.90;9.13;;;;;;;4.40;70.38;100994.66;8488244;33;20425;-72
2021/01/14 16:19:47;;;;;;;19.83;9.50;;;;;;;4.43;70.25;100997.22;8490462;33;20412;-71
2021/01/14 16:24:50;;;;;;;26.75;11.77;;;;;;;4.48;70.43;100993.56;8496857;33;20184;-71
2021/01/14 16:29:55;;;;;;;20.08;9.25;;;;;;;4.50;70.33;101002.28;8505342;33;20464;-71
2021/01/14 16:34:58;;;;;;;17.23;10.35;;;;;;;4.49;70.07;101005.88;8505417;33;20452;-71
2021/01/14 16:40:01;;;;;;;21.92;10.20;;;;;;;4.41;70.15;101004.31;8511425;33;20472;-71
2021/01/14 16:45:06;;;;;;;21.58;8.88;;;;;;;4.40;70.18;101001.75;8503974;33;20696;-71
2021/01/14 16:50:11;;;;;;;18.02;9.25;;;;;;;4.36;70.46;101005.38;8503676;33;20618;-70
2021/01/14 16:55:13;;;;;;;18.37;9.13;;;;;;;4.34;70.74;100996.66;8508294;33;20169;-70
2021/01/14 17:00:22;;;;;;;17.10;7.83;;;;;;;4.32;70.40;101006.41;8508603;33;20449;-71
2021/01/14 17:05:24;;;;;;;15.60;6.73;;;;;;;4.28;68.18;101003.00;8510038;33;20144;-71
2021/01/14 17:10:27;;;;;;;17.40;7.40;;;;;;;4.33;66.85;101010.75;8493054;33;20640;-71
2021/01/14 17:15:31;;;;;;;19.83;9.17;;;;;;;4.36;67.39;101005.38;8524920;33;20546;-70
2021/01/14 17:20:33;;;;;;;12.50;4.90;;;;;;;4.36;62.83;100997.44;8513990;33;20454;-70
2021/01/14 17:25:35;;;;;;;5.67;4.77;;;;;;;4.39;60.57;101007.97;8514908;33;20236;-70
2021/01/14 17:30:40;;;;;;;15.10;8.23;;;;;;;4.38;62.37;101011.50;8511283;33;20513;-70
2021/01/14 17:35:43;;;;;;;13.57;7.90;;;;;;;4.33;63.83;101018.69;8513159;33;21011;-71
2021/01/14 17:40:45;;;;;;;15.77;7.28;;;;;;;4.24;65.67;101015.44;8515987;33;21908;-69
2021/01/14 17:45:50;;;;;;;17.20;8.53;;;;;;;4.22;66.79;101019.94;8513252;33;20398;-69
2021/01/14 17:50:52;;;;;;;20.00;9.50;;;;;;;4.31;67.22;101033.78;8514334;33;20184;-69
2021/01/14 17:55:55;;;;;;;15.73;8.27;;;;;;;4.32;67.61;101023.13;8528923;33;20459;-70
2021/01/14 18:00:58;;;;;;;16.27;8.77;;;;;;;4.34;67.95;101023.97;8507242;33;20405;-70
2021/01/14 18:06:00;;;;;;;16.38;8.82;;;;;;;4.32;68.42;101022.28;8505563;33;20992;-70
2021/01/14 18:11:03;;;;;;;19.30;10.13;;;;;;;4.33;68.47;101019.56;8502768;33;20455;-70
2021/01/14 18:16:08;;;;;;;20.70;9.40;;;;;;;4.36;69.32;101021.25;8491659;33;20412;-70
2021/01/14 18:21:11;;;;;;;17.60;9.13;;;;;;;4.35;69.48;101014.25;8490673;33;20458;-70
2021/01/14 18:26:14;;;;;;;22.10;10.82;;;;;;;4.37;69.79;101023.88;8486323;33;20443;-70
2021/01/14 18:31:18;;;;;;;21.70;10.63;;;;;;;4.37;69.92;101020.34;8484901;33;20442;-70
2021/01/14 18:36:30;;;;;;;23.67;11.33;;;;;;;4.37;70.07;101023.88;8482458;33;21025;-71
2021/01/14 18:41:32;;;;;;;31.60;14.00;;;;;;;4.34;70.29;101026.59;8494971;33;20152;-70
2021/01/14 18:46:41;;;;;;;20.23;10.90;;;;;;;4.34;70.46;101034.53;8487436;33;20157;-70
2021/01/14 18:51:43;;;;;;;19.83;10.63;;;;;;;4.35;70.58;101035.41;8490587;33;20889;-70
2021/01/14 18:56:46;;;;;;;25.17;12.25;;;;;;;4.32;70.86;101033.72;8495839;33;20541;-71
2021/01/14 19:01:50;;;;;;;18.13;9.83;;;;;;;4.31;70.84;101039.06;8487856;33;20555;-71
2021/01/14 19:06:53;;;;;;;20.67;10.53;;;;;;;4.30;70.81;101039.97;8484012;33;20453;-71
2021/01/14 19:11:56;;;;;;;29.77;15.40;;;;;;;4.32;70.98;101038.16;8481475;33;20414;-71
2021/01/14 19:16:59;;;;;;;24.70;12.63;;;;;;;4.32;70.63;101031.06;8481212;33;20181;-70
2021/01/14 19:22:03;;;;;;;20.17;10.57;;;;;;;4.24;70.81;101033.09;8485138;33;20446;-71
2021/01/14 19:27:05;;;;;;;18.13;10.53;;;;;;;4.24;70.70;101033.09;8537686;33;20415;-71
2021/01/14 19:32:09;;;;;;;21.03;11.27;;;;;;;4.31;70.16;101031.13;8533696;33;21072;-71
2021/01/14 19:37:11;;;;;;;22.33;12.07;;;;;;;4.33;69.75;101029.28;8500007;33;20195;-71
2021/01/14 19:42:14;;;;;;;17.15;9.82;;;;;;;4.29;69.98;101027.66;8494030;33;20424;-71
2021/01/14 19:47:17;;;;;;;17.73;10.23;;;;;;;4.29;69.17;101027.66;8497668;33;20466;-70
2021/01/14 19:52:20;;;;;;;24.00;11.30;;;;;;;4.27;69.07;101024.19;8489649;33;20319;-71
2021/01/14 19:57:22;;;;;;;20.38;10.73;;;;;;;4.18;69.18;101020.91;8487033;33;20472;-71
2021/01/14 20:02:25;;;;;;;17.83;10.47;;;;;;;4.21;69.51;101022.59;8486120;33;20306;-70
2021/01/14 20:07:32;;;;;;;19.75;9.27;;;;;;;4.18;69.63;101020.91;8484918;33;20466;-71
2021/01/14 20:12:34;;;;;;;18.67;9.85;;;;;;;4.23;69.62;101037.50;8482968;33;20198;-71
2021/01/14 20:17:38;;;;;;;15.33;9.93;;;;;;;4.22;69.49;101029.59;8490953;33;20430;-71
2021/01/14 20:22:40;;;;;;;20.07;10.00;;;;;;;4.22;69.85;101033.16;8486677;33;20237;-71
2021/01/14 20:27:43;;;;;;;19.70;10.73;;;;;;;4.21;69.94;101033.19;8521597;33;20943;-71
2021/01/14 20:32:46;;;;;;;17.37;10.27;;;;;;;4.21;70.47;101049.91;8494375;33;20137;-71
2021/01/14 20:37:49;;;;;;;23.33;11.27;;;;;;;4.16;71.00;101049.19;8484771;33;21261;-71
2021/01/14 20:42:51;;;;;;;19.67;10.53;;;;;;;4.21;70.50;101054.34;8480544;33;20248;-71
2021/01/14 20:47:55;;;;;;;15.00;9.33;;;;;;;4.19;71.00;101051.72;8480719;33;20496;-70
2021/01/14 20:52:58;;;;;;;19.63;9.17;;;;;;;4.17;71.34;101060.66;8480064;33;20188;-71
2021/01/14 20:58:00;;;;;;;18.50;10.07;;;;;;;4.17;71.45;101060.66;8480862;33;20293;-71
2021/01/14 21:03:04;;;;;;;20.77;10.43;;;;;;;4.16;71.55;101072.97;8492945;33;20415;-72
2021/01/14 21:08:07;;;;;;;22.37;10.57;;;;;;;4.15;71.81;101068.63;8491329;33;20580;-71
2021/01/14 21:13:09;;;;;;;20.40;9.10;;;;;;;4.06;71.99;101071.53;8491029;33;20977;-71
2021/01/14 21:18:12;;;;;;;18.50;9.67;;;;;;;4.10;71.92;101072.31;8491615;33;20620;-71
2021/01/14 21:23:14;;;;;;;24.73;9.93;;;;;;;4.08;72.14;101087.34;8477399;33;20690;-71
2021/01/14 21:28:17;;;;;;;15.93;9.03;;;;;;;4.01;72.22;101089.31;8486615;33;20458;-71
2021/01/14 21:33:21;;;;;;;21.80;10.17;;;;;;;3.94;72.49;101085.09;8499669;33;20428;-71
2021/01/14 21:38:27;;;;;;;22.07;10.17;;;;;;;3.96;72.54;101091.22;8482250;33;20534;-71
2021/01/14 21:43:30;;;;;;;24.93;10.40;;;;;;;3.95;72.52;101090.34;8500249;33;20149;-71
2021/01/14 21:48:33;;;;;;;24.13;10.03;;;;;;;3.90;72.78;101092.25;8493021;33;20859;-71
2021/01/14 21:53:40;;;;;;;20.67;10.63;;;;;;;3.95;72.83;101100.03;8493187;33;20279;-71
2021/01/14 21:58:43;;;;;;;24.20;10.33;;;;;;;3.95;72.46;101100.94;8542426;33;20538;-71
2021/01/14 22:03:46;;;;;;;21.00;10.20;;;;;;;3.95;72.71;101100.94;8542476;33;20461;-71
2021/01/14 22:08:48;;;;;;;21.10;10.57;;;;;;;3.94;72.32;101100.97;8544549;33;20455;-71
2021/01/14 22:13:50;;;;;;;22.27;10.23;;;;;;;3.92;72.49;101105.41;8540367;33;20587;-71
2021/01/14 22:18:54;;;;;;;22.20;10.20;;;;;;;3.88;72.90;101106.44;8539591;33;20511;-71
2021/01/14 22:23:56;;;;;;;27.30;10.77;;;;;;;3.83;72.71;101106.53;8538524;33;20418;-71
2021/01/14 22:28:59;;;;;;;22.83;11.67;;;;;;;3.83;73.10;101106.53;8539288;33;21512;-70
2021/01/14 22:34:04;;;;;;;22.97;11.50;;;;;;;3.85;73.25;101110.00;8538396;33;20859;-71
2021/01/14 22:39:09;;;;;;;27.00;12.73;;;;;;;3.85;73.11;101110.00;8537517;33;21230;-71
2021/01/14 22:44:13;;;;;;;36.03;15.03;;;;;;;3.77;72.92;101118.16;8530814;33;20516;-71
2021/01/14 22:49:18;;;;;;;25.53;12.43;;;;;;;3.76;73.13;101116.44;8530631;33;20417;-71
2021/01/14 22:54:21;;;;;;;28.33;12.63;;;;;;;3.75;73.50;101122.59;8530476;33;20469;-71
2021/01/14 22:59:23;;;;;;;31.37;12.67;;;;;;;3.75;73.21;101117.31;8528135;33;20357;-71
2021/01/14 23:04:26;;;;;;;31.85;13.73;;;;;;;3.79;73.47;101111.06;8529897;33;20179;-71
2021/01/14 23:09:29;;;;;;;24.30;12.00;;;;;;;3.75;73.25;101119.97;8529207;33;20437;-71
2021/01/14 23:14:31;;;;;;;27.93;13.17;;;;;;;3.73;73.10;101124.44;8530328;33;20423;-70
2021/01/14 23:19:34;;;;;;;30.17;13.33;;;;;;;3.73;73.10;101131.47;8530849;33;20156;-72
2021/01/14 23:24:38;;;;;;;36.37;15.53;;;;;;;3.56;73.36;101130.19;8530307;33;20187;-71
2021/01/14 23:29:42;;;;;;;30.77;13.43;;;;;;;3.48;73.73;101132.16;8519845;33;20422;-71
2021/01/14 23:34:46;;;;;;;26.13;11.37;;;;;;;3.50;74.02;101134.72;8489415;33;20239;-70